sensor_id;sensor_type;location;lat;lon;timestamp;P1;durP1;ratioP1;P2;durP2;ratioP2
17852;SDS011;9052;53.494;14.376;2023-05-28T00:01:18;9.90;;;5.43;;
17852;SDS011;9052;53.494;14.376;2023-05-28T00:03:45;5.90;;;4.43;;
17852;SDS011;9052;53.494;14.376;2023-05-28T00:06:12;10.17;;;5.37;;
17852;SDS011;9052;53.494;14.376;2023-05-28T00:08:40;13.47;;;5.20;;
17852;SDS011;9052;53.494;14.376;2023-05-28T00:11:07;16.60;;;5.37;;
17852;SDS011;9052;53.494;14.376;2023-05-28T00:13:34;12.10;;;5.10;;
17852;SDS011;9052;53.494;14.376;2023-05-28T00:16:01;7.30;;;4.90;;
17852;SDS011;9052;53.494;14.376;2023-05-28T00:18:28;6.03;;;5.30;;
17852;SDS011;9052;53.494;14.376;2023-05-28T00:20:55;9.50;;;4.73;;
17852;SDS011;9052;53.494;14.376;2023-05-28T00:23:22;5.90;;;4.63;;
17852;SDS011;9052;53.494;14.376;2023-05-28T00:25:50;8.40;;;4.67;;
17852;SDS011;9052;53.494;14.376;2023-05-28T00:28:17;9.97;;;5.03;;
17852;SDS011;9052;53.494;14.376;2023-05-28T00:30:45;10.87;;;3.83;;
17852;SDS011;9052;53.494;14.376;2023-05-28T00:33:12;6.83;;;3.60;;
17852;SDS011;9052;53.494;14.376;2023-05-28T00:35:38;8.10;;;4.00;;
17852;SDS011;9052;53.494;14.376;2023-05-28T00:38:05;6.53;;;3.73;;
17852;SDS011;9052;53.494;14.376;2023-05-28T00:40:32;12.47;;;3.90;;
17852;SDS011;9052;53.494;14.376;2023-05-28T00:43:00;6.37;;;3.90;;
17852;SDS011;9052;53.494;14.376;2023-05-28T00:45:28;7.90;;;4.80;;
17852;SDS011;9052;53.494;14.376;2023-05-28T00:47:55;13.63;;;4.33;;
17852;SDS011;9052;53.494;14.376;2023-05-28T00:50:22;13.97;;;4.63;;
17852;SDS011;9052;53.494;14.376;2023-05-28T00:52:50;7.70;;;3.43;;
17852;SDS011;9052;53.494;14.376;2023-05-28T00:55:17;4.00;;;3.63;;
17852;SDS011;9052;53.494;14.376;2023-05-28T00:57:45;12.03;;;4.03;;
17852;SDS011;9052;53.494;14.376;2023-05-28T01:00:15;10.43;;;3.70;;
17852;SDS011;9052;53.494;14.376;2023-05-28T01:02:43;10.67;;;4.00;;
17852;SDS011;9052;53.494;14.376;2023-05-28T01:05:10;4.60;;;4.10;;
17852;SDS011;9052;53.494;14.376;2023-05-28T01:07:37;8.47;;;4.13;;
17852;SDS011;9052;53.494;14.376;2023-05-28T01:10:05;4.00;;;3.70;;
17852;SDS011;9052;53.494;14.376;2023-05-28T01:12:32;5.07;;;3.70;;
17852;SDS011;9052;53.494;14.376;2023-05-28T01:15:00;6.00;;;4.40;;
17852;SDS011;9052;53.494;14.376;2023-05-28T01:17:29;7.43;;;4.60;;
17852;SDS011;9052;53.494;14.376;2023-05-28T01:19:56;9.07;;;4.00;;
17852;SDS011;9052;53.494;14.376;2023-05-28T01:22:30;6.60;;;3.93;;
17852;SDS011;9052;53.494;14.376;2023-05-28T01:25:02;7.43;;;4.30;;
17852;SDS011;9052;53.494;14.376;2023-05-28T01:27:34;13.70;;;3.63;;
17852;SDS011;9052;53.494;14.376;2023-05-28T01:30:01;21.53;;;5.00;;
17852;SDS011;9052;53.494;14.376;2023-05-28T01:32:30;5.93;;;4.70;;
17852;SDS011;9052;53.494;14.376;2023-05-28T01:34:57;6.50;;;4.13;;
17852;SDS011;9052;53.494;14.376;2023-05-28T01:37:24;7.37;;;3.57;;
17852;SDS011;9052;53.494;14.376;2023-05-28T01:39:52;14.00;;;4.20;;
17852;SDS011;9052;53.494;14.376;2023-05-28T01:42:20;5.13;;;3.53;;
17852;SDS011;9052;53.494;14.376;2023-05-28T01:44:48;20.90;;;5.10;;
17852;SDS011;9052;53.494;14.376;2023-05-28T01:47:16;6.53;;;4.07;;
17852;SDS011;9052;53.494;14.376;2023-05-28T01:49:43;4.77;;;3.83;;
17852;SDS011;9052;53.494;14.376;2023-05-28T01:52:12;6.70;;;4.00;;
17852;SDS011;9052;53.494;14.376;2023-05-28T01:54:39;18.87;;;8.33;;
17852;SDS011;9052;53.494;14.376;2023-05-28T01:57:06;24.97;;;9.80;;
17852;SDS011;9052;53.494;14.376;2023-05-28T01:59:34;8.07;;;4.60;;
17852;SDS011;9052;53.494;14.376;2023-05-28T02:02:01;3.30;;;3.00;;
17852;SDS011;9052;53.494;14.376;2023-05-28T02:04:28;4.33;;;3.53;;
17852;SDS011;9052;53.494;14.376;2023-05-28T02:06:55;5.03;;;2.90;;
17852;SDS011;9052;53.494;14.376;2023-05-28T02:09:23;2.60;;;2.20;;
17852;SDS011;9052;53.494;14.376;2023-05-28T02:11:50;2.13;;;1.70;;
17852;SDS011;9052;53.494;14.376;2023-05-28T02:14:17;12.87;;;3.10;;
17852;SDS011;9052;53.494;14.376;2023-05-28T02:16:46;3.87;;;3.10;;
17852;SDS011;9052;53.494;14.376;2023-05-28T02:19:14;6.37;;;3.73;;
17852;SDS011;9052;53.494;14.376;2023-05-28T02:21:42;5.07;;;3.07;;
17852;SDS011;9052;53.494;14.376;2023-05-28T02:24:09;3.90;;;2.47;;
17852;SDS011;9052;53.494;14.376;2023-05-28T02:26:36;4.00;;;3.07;;
17852;SDS011;9052;53.494;14.376;2023-05-28T02:29:03;4.93;;;2.27;;
17852;SDS011;9052;53.494;14.376;2023-05-28T02:31:31;3.83;;;2.67;;
17852;SDS011;9052;53.494;14.376;2023-05-28T02:33:59;3.70;;;2.87;;
17852;SDS011;9052;53.494;14.376;2023-05-28T02:36:26;3.53;;;2.87;;
17852;SDS011;9052;53.494;14.376;2023-05-28T02:38:55;5.47;;;2.93;;
17852;SDS011;9052;53.494;14.376;2023-05-28T02:41:22;4.80;;;3.20;;
17852;SDS011;9052;53.494;14.376;2023-05-28T02:43:49;4.50;;;2.83;;
17852;SDS011;9052;53.494;14.376;2023-05-28T02:46:15;3.40;;;2.10;;
17852;SDS011;9052;53.494;14.376;2023-05-28T02:48:42;3.00;;;2.53;;
17852;SDS011;9052;53.494;14.376;2023-05-28T02:51:11;2.20;;;1.90;;
17852;SDS011;9052;53.494;14.376;2023-05-28T02:53:38;2.07;;;1.97;;
17852;SDS011;9052;53.494;14.376;2023-05-28T02:56:05;2.93;;;2.60;;
17852;SDS011;9052;53.494;14.376;2023-05-28T02:58:32;4.70;;;2.40;;
17852;SDS011;9052;53.494;14.376;2023-05-28T03:01:01;3.00;;;1.80;;
17852;SDS011;9052;53.494;14.376;2023-05-28T03:03:28;2.40;;;2.20;;
17852;SDS011;9052;53.494;14.376;2023-05-28T03:05:55;2.80;;;1.90;;
17852;SDS011;9052;53.494;14.376;2023-05-28T03:08:23;3.03;;;2.30;;
17852;SDS011;9052;53.494;14.376;2023-05-28T03:10:50;2.13;;;1.57;;
17852;SDS011;9052;53.494;14.376;2023-05-28T03:13:17;6.93;;;2.17;;
17852;SDS011;9052;53.494;14.376;2023-05-28T03:15:44;1.93;;;1.47;;
17852;SDS011;9052;53.494;14.376;2023-05-28T03:18:11;3.50;;;2.13;;
17852;SDS011;9052;53.494;14.376;2023-05-28T03:20:38;5.37;;;2.27;;
17852;SDS011;9052;53.494;14.376;2023-05-28T03:23:05;2.00;;;1.90;;
17852;SDS011;9052;53.494;14.376;2023-05-28T03:25:33;3.20;;;2.43;;
17852;SDS011;9052;53.494;14.376;2023-05-28T03:28:00;6.90;;;2.40;;
17852;SDS011;9052;53.494;14.376;2023-05-28T03:30:27;5.20;;;2.67;;
17852;SDS011;9052;53.494;14.376;2023-05-28T03:32:54;8.67;;;2.40;;
17852;SDS011;9052;53.494;14.376;2023-05-28T03:35:21;3.40;;;2.67;;
17852;SDS011;9052;53.494;14.376;2023-05-28T03:37:47;4.07;;;2.60;;
17852;SDS011;9052;53.494;14.376;2023-05-28T03:40:14;6.20;;;3.03;;
17852;SDS011;9052;53.494;14.376;2023-05-28T03:42:43;4.23;;;2.67;;
17852;SDS011;9052;53.494;14.376;2023-05-28T03:45:10;4.10;;;3.40;;
17852;SDS011;9052;53.494;14.376;2023-05-28T03:47:37;6.50;;;3.33;;
17852;SDS011;9052;53.494;14.376;2023-05-28T03:50:04;3.30;;;2.77;;
17852;SDS011;9052;53.494;14.376;2023-05-28T03:52:31;2.80;;;2.20;;
17852;SDS011;9052;53.494;14.376;2023-05-28T03:54:58;2.33;;;2.13;;
17852;SDS011;9052;53.494;14.376;2023-05-28T03:57:25;5.43;;;3.27;;
17852;SDS011;9052;53.494;14.376;2023-05-28T03:59:53;5.50;;;3.07;;
17852;SDS011;9052;53.494;14.376;2023-05-28T04:02:22;5.10;;;3.40;;
17852;SDS011;9052;53.494;14.376;2023-05-28T04:04:49;4.53;;;3.60;;
17852;SDS011;9052;53.494;14.376;2023-05-28T04:07:16;7.37;;;2.20;;
17852;SDS011;9052;53.494;14.376;2023-05-28T04:09:43;6.93;;;3.00;;
17852;SDS011;9052;53.494;14.376;2023-05-28T04:12:10;4.27;;;3.40;;
17852;SDS011;9052;53.494;14.376;2023-05-28T04:14:38;12.30;;;2.67;;
17852;SDS011;9052;53.494;14.376;2023-05-28T04:17:07;5.03;;;3.30;;
17852;SDS011;9052;53.494;14.376;2023-05-28T04:19:36;6.80;;;3.80;;
17852;SDS011;9052;53.494;14.376;2023-05-28T04:22:03;5.40;;;3.57;;
17852;SDS011;9052;53.494;14.376;2023-05-28T04:24:30;10.83;;;4.40;;
17852;SDS011;9052;53.494;14.376;2023-05-28T04:26:57;2.97;;;2.70;;
17852;SDS011;9052;53.494;14.376;2023-05-28T04:29:24;4.20;;;3.80;;
17852;SDS011;9052;53.494;14.376;2023-05-28T04:31:56;4.83;;;3.73;;
17852;SDS011;9052;53.494;14.376;2023-05-28T04:34:25;6.93;;;4.40;;
17852;SDS011;9052;53.494;14.376;2023-05-28T04:36:52;4.83;;;3.30;;
17852;SDS011;9052;53.494;14.376;2023-05-28T04:39:21;6.80;;;3.30;;
17852;SDS011;9052;53.494;14.376;2023-05-28T04:41:48;5.83;;;3.70;;
17852;SDS011;9052;53.494;14.376;2023-05-28T04:44:16;9.30;;;2.97;;
17852;SDS011;9052;53.494;14.376;2023-05-28T04:46:43;4.43;;;2.93;;
17852;SDS011;9052;53.494;14.376;2023-05-28T04:49:10;4.77;;;3.30;;
17852;SDS011;9052;53.494;14.376;2023-05-28T04:51:40;4.77;;;3.57;;
17852;SDS011;9052;53.494;14.376;2023-05-28T04:54:07;7.60;;;3.50;;
17852;SDS011;9052;53.494;14.376;2023-05-28T04:56:34;3.53;;;3.00;;
17852;SDS011;9052;53.494;14.376;2023-05-28T04:59:01;9.73;;;3.60;;
17852;SDS011;9052;53.494;14.376;2023-05-28T05:01:33;5.83;;;3.47;;
17852;SDS011;9052;53.494;14.376;2023-05-28T05:04:00;3.63;;;2.70;;
17852;SDS011;9052;53.494;14.376;2023-05-28T05:06:27;5.03;;;3.70;;
17852;SDS011;9052;53.494;14.376;2023-05-28T05:08:56;11.63;;;4.30;;
17852;SDS011;9052;53.494;14.376;2023-05-28T05:11:24;9.07;;;3.90;;
17852;SDS011;9052;53.494;14.376;2023-05-28T05:13:51;8.83;;;4.03;;
17852;SDS011;9052;53.494;14.376;2023-05-28T05:16:18;9.50;;;4.47;;
17852;SDS011;9052;53.494;14.376;2023-05-28T05:18:47;8.70;;;5.57;;
17852;SDS011;9052;53.494;14.376;2023-05-28T05:21:13;10.90;;;5.90;;
17852;SDS011;9052;53.494;14.376;2023-05-28T05:23:41;20.30;;;8.37;;
17852;SDS011;9052;53.494;14.376;2023-05-28T05:26:09;10.50;;;7.10;;
17852;SDS011;9052;53.494;14.376;2023-05-28T05:28:37;7.63;;;6.33;;
17852;SDS011;9052;53.494;14.376;2023-05-28T05:31:04;12.63;;;6.03;;
17852;SDS011;9052;53.494;14.376;2023-05-28T05:33:31;10.30;;;5.50;;
17852;SDS011;9052;53.494;14.376;2023-05-28T05:35:58;11.90;;;5.90;;
17852;SDS011;9052;53.494;14.376;2023-05-28T05:38:25;9.27;;;5.43;;
17852;SDS011;9052;53.494;14.376;2023-05-28T05:40:52;10.70;;;5.83;;
17852;SDS011;9052;53.494;14.376;2023-05-28T05:43:20;8.40;;;5.90;;
17852;SDS011;9052;53.494;14.376;2023-05-28T05:45:47;7.43;;;5.40;;
17852;SDS011;9052;53.494;14.376;2023-05-28T05:48:14;8.27;;;5.43;;
17852;SDS011;9052;53.494;14.376;2023-05-28T05:50:50;7.40;;;5.13;;
17852;SDS011;9052;53.494;14.376;2023-05-28T05:53:20;6.57;;;5.20;;
17852;SDS011;9052;53.494;14.376;2023-05-28T05:55:47;12.10;;;5.73;;
17852;SDS011;9052;53.494;14.376;2023-05-28T05:58:15;9.27;;;5.53;;
17852;SDS011;9052;53.494;14.376;2023-05-28T06:00:43;19.73;;;5.20;;
17852;SDS011;9052;53.494;14.376;2023-05-28T06:03:10;6.60;;;4.73;;
17852;SDS011;9052;53.494;14.376;2023-05-28T06:05:37;13.93;;;5.87;;
17852;SDS011;9052;53.494;14.376;2023-05-28T06:08:04;8.40;;;5.20;;
17852;SDS011;9052;53.494;14.376;2023-05-28T06:10:31;13.10;;;6.83;;
17852;SDS011;9052;53.494;14.376;2023-05-28T06:12:58;9.43;;;5.50;;
17852;SDS011;9052;53.494;14.376;2023-05-28T06:15:26;11.97;;;6.23;;
17852;SDS011;9052;53.494;14.376;2023-05-28T06:17:55;14.77;;;6.63;;
17852;SDS011;9052;53.494;14.376;2023-05-28T06:20:22;21.73;;;6.80;;
17852;SDS011;9052;53.494;14.376;2023-05-28T06:22:49;9.67;;;6.10;;
17852;SDS011;9052;53.494;14.376;2023-05-28T06:25:16;11.63;;;7.90;;
17852;SDS011;9052;53.494;14.376;2023-05-28T06:27:43;12.63;;;6.77;;
17852;SDS011;9052;53.494;14.376;2023-05-28T06:30:10;12.67;;;6.77;;
17852;SDS011;9052;53.494;14.376;2023-05-28T06:32:37;13.43;;;6.93;;
17852;SDS011;9052;53.494;14.376;2023-05-28T06:35:06;17.43;;;7.87;;
17852;SDS011;9052;53.494;14.376;2023-05-28T06:37:33;13.00;;;7.30;;
17852;SDS011;9052;53.494;14.376;2023-05-28T06:40:00;16.17;;;6.10;;
17852;SDS011;9052;53.494;14.376;2023-05-28T06:42:27;8.00;;;5.17;;
17852;SDS011;9052;53.494;14.376;2023-05-28T06:44:53;9.13;;;6.60;;
17852;SDS011;9052;53.494;14.376;2023-05-28T06:47:20;8.67;;;5.53;;
17852;SDS011;9052;53.494;14.376;2023-05-28T06:49:47;26.00;;;6.40;;
17852;SDS011;9052;53.494;14.376;2023-05-28T06:52:16;16.70;;;5.90;;
17852;SDS011;9052;53.494;14.376;2023-05-28T06:54:44;14.20;;;5.33;;
17852;SDS011;9052;53.494;14.376;2023-05-28T06:57:11;8.97;;;6.00;;
17852;SDS011;9052;53.494;14.376;2023-05-28T06:59:38;9.50;;;6.17;;
17852;SDS011;9052;53.494;14.376;2023-05-28T07:02:05;10.50;;;5.27;;
17852;SDS011;9052;53.494;14.376;2023-05-28T07:04:32;11.57;;;6.10;;
17852;SDS011;9052;53.494;14.376;2023-05-28T07:06:58;24.63;;;5.60;;
17852;SDS011;9052;53.494;14.376;2023-05-28T07:09:27;8.97;;;4.97;;
17852;SDS011;9052;53.494;14.376;2023-05-28T07:11:54;8.90;;;5.37;;
17852;SDS011;9052;53.494;14.376;2023-05-28T07:14:21;8.80;;;4.20;;
17852;SDS011;9052;53.494;14.376;2023-05-28T07:16:48;8.67;;;4.33;;
17852;SDS011;9052;53.494;14.376;2023-05-28T07:19:15;9.13;;;3.67;;
17852;SDS011;9052;53.494;14.376;2023-05-28T07:21:42;9.10;;;3.80;;
17852;SDS011;9052;53.494;14.376;2023-05-28T07:24:09;8.10;;;3.50;;
17852;SDS011;9052;53.494;14.376;2023-05-28T07:26:37;5.60;;;3.97;;
17852;SDS011;9052;53.494;14.376;2023-05-28T07:29:04;7.73;;;3.50;;
17852;SDS011;9052;53.494;14.376;2023-05-28T07:31:31;6.53;;;3.43;;
17852;SDS011;9052;53.494;14.376;2023-05-28T07:33:58;5.60;;;3.00;;
17852;SDS011;9052;53.494;14.376;2023-05-28T07:36:25;6.93;;;3.40;;
17852;SDS011;9052;53.494;14.376;2023-05-28T07:38:52;7.47;;;3.33;;
17852;SDS011;9052;53.494;14.376;2023-05-28T07:41:19;10.67;;;3.47;;
17852;SDS011;9052;53.494;14.376;2023-05-28T07:43:48;7.33;;;3.17;;
17852;SDS011;9052;53.494;14.376;2023-05-28T07:46:15;13.00;;;2.93;;
17852;SDS011;9052;53.494;14.376;2023-05-28T07:48:42;5.83;;;2.87;;
17852;SDS011;9052;53.494;14.376;2023-05-28T07:51:10;4.80;;;2.67;;
17852;SDS011;9052;53.494;14.376;2023-05-28T07:53:37;4.43;;;2.57;;
17852;SDS011;9052;53.494;14.376;2023-05-28T07:56:04;12.90;;;2.77;;
17852;SDS011;9052;53.494;14.376;2023-05-28T07:58:32;10.47;;;2.90;;
17852;SDS011;9052;53.494;14.376;2023-05-28T08:01:00;8.87;;;2.80;;
17852;SDS011;9052;53.494;14.376;2023-05-28T08:03:27;6.67;;;3.03;;
17852;SDS011;9052;53.494;14.376;2023-05-28T08:05:54;4.60;;;2.87;;
17852;SDS011;9052;53.494;14.376;2023-05-28T08:08:21;5.90;;;3.00;;
17852;SDS011;9052;53.494;14.376;2023-05-28T08:10:48;9.67;;;3.70;;
17852;SDS011;9052;53.494;14.376;2023-05-28T08:13:15;5.97;;;2.57;;
17852;SDS011;9052;53.494;14.376;2023-05-28T08:15:42;3.30;;;2.70;;
17852;SDS011;9052;53.494;14.376;2023-05-28T08:18:10;4.20;;;3.03;;
17852;SDS011;9052;53.494;14.376;2023-05-28T08:20:37;5.13;;;2.97;;
17852;SDS011;9052;53.494;14.376;2023-05-28T08:23:04;4.30;;;2.77;;
17852;SDS011;9052;53.494;14.376;2023-05-28T08:25:31;13.53;;;3.43;;
17852;SDS011;9052;53.494;14.376;2023-05-28T08:27:58;5.10;;;3.00;;
17852;SDS011;9052;53.494;14.376;2023-05-28T08:30:25;4.80;;;2.30;;
17852;SDS011;9052;53.494;14.376;2023-05-28T08:32:52;7.73;;;2.93;;
17852;SDS011;9052;53.494;14.376;2023-05-28T08:35:20;15.20;;;2.87;;
17852;SDS011;9052;53.494;14.376;2023-05-28T08:37:47;6.80;;;2.43;;
17852;SDS011;9052;53.494;14.376;2023-05-28T08:40:14;5.03;;;2.60;;
17852;SDS011;9052;53.494;14.376;2023-05-28T08:42:41;5.40;;;2.57;;
17852;SDS011;9052;53.494;14.376;2023-05-28T08:45:09;8.33;;;3.03;;
17852;SDS011;9052;53.494;14.376;2023-05-28T08:47:37;23.73;;;2.77;;
17852;SDS011;9052;53.494;14.376;2023-05-28T08:50:04;10.37;;;2.07;;
17852;SDS011;9052;53.494;14.376;2023-05-28T08:52:34;5.30;;;2.77;;
17852;SDS011;9052;53.494;14.376;2023-05-28T08:55:01;4.90;;;2.37;;
17852;SDS011;9052;53.494;14.376;2023-05-28T08:57:30;9.23;;;2.17;;
17852;SDS011;9052;53.494;14.376;2023-05-28T08:59:57;9.33;;;3.93;;
17852;SDS011;9052;53.494;14.376;2023-05-28T09:02:26;4.23;;;2.20;;
17852;SDS011;9052;53.494;14.376;2023-05-28T09:04:53;7.00;;;2.73;;
17852;SDS011;9052;53.494;14.376;2023-05-28T09:07:22;5.27;;;2.40;;
17852;SDS011;9052;53.494;14.376;2023-05-28T09:09:50;5.93;;;2.60;;
17852;SDS011;9052;53.494;14.376;2023-05-28T09:12:19;7.90;;;2.40;;
17852;SDS011;9052;53.494;14.376;2023-05-28T09:14:49;2.50;;;2.30;;
17852;SDS011;9052;53.494;14.376;2023-05-28T09:17:16;5.83;;;2.20;;
17852;SDS011;9052;53.494;14.376;2023-05-28T09:19:49;4.97;;;2.23;;
17852;SDS011;9052;53.494;14.376;2023-05-28T09:22:17;3.83;;;3.00;;
17852;SDS011;9052;53.494;14.376;2023-05-28T09:24:48;4.17;;;2.77;;
17852;SDS011;9052;53.494;14.376;2023-05-28T09:27:17;9.53;;;3.00;;
17852;SDS011;9052;53.494;14.376;2023-05-28T09:29:45;8.53;;;2.43;;
17852;SDS011;9052;53.494;14.376;2023-05-28T09:32:12;5.30;;;2.80;;
17852;SDS011;9052;53.494;14.376;2023-05-28T09:34:44;4.57;;;2.87;;
17852;SDS011;9052;53.494;14.376;2023-05-28T09:37:11;12.27;;;3.17;;
17852;SDS011;9052;53.494;14.376;2023-05-28T09:39:41;8.20;;;2.50;;
17852;SDS011;9052;53.494;14.376;2023-05-28T09:42:10;7.83;;;2.77;;
17852;SDS011;9052;53.494;14.376;2023-05-28T09:44:38;8.20;;;2.87;;
17852;SDS011;9052;53.494;14.376;2023-05-28T09:47:13;7.10;;;2.60;;
17852;SDS011;9052;53.494;14.376;2023-05-28T09:49:41;6.13;;;2.80;;
17852;SDS011;9052;53.494;14.376;2023-05-28T09:52:09;10.43;;;3.33;;
17852;SDS011;9052;53.494;14.376;2023-05-28T09:54:38;14.10;;;2.67;;
17852;SDS011;9052;53.494;14.376;2023-05-28T09:57:06;6.67;;;3.03;;
17852;SDS011;9052;53.494;14.376;2023-05-28T09:59:36;11.50;;;3.17;;
17852;SDS011;9052;53.494;14.376;2023-05-28T10:02:16;10.60;;;3.00;;
17852;SDS011;9052;53.494;14.376;2023-05-28T10:04:52;14.73;;;3.10;;
17852;SDS011;9052;53.494;14.376;2023-05-28T10:07:20;7.30;;;3.00;;
17852;SDS011;9052;53.494;14.376;2023-05-28T10:09:48;5.10;;;2.80;;
17852;SDS011;9052;53.494;14.376;2023-05-28T10:12:19;7.03;;;2.80;;
17852;SDS011;9052;53.494;14.376;2023-05-28T10:14:48;5.83;;;2.73;;
17852;SDS011;9052;53.494;14.376;2023-05-28T10:17:15;5.20;;;3.10;;
17852;SDS011;9052;53.494;14.376;2023-05-28T10:19:43;4.63;;;2.50;;
17852;SDS011;9052;53.494;14.376;2023-05-28T10:22:11;5.27;;;2.30;;
17852;SDS011;9052;53.494;14.376;2023-05-28T10:24:39;5.13;;;2.40;;
17852;SDS011;9052;53.494;14.376;2023-05-28T10:27:06;3.50;;;2.33;;
17852;SDS011;9052;53.494;14.376;2023-05-28T10:29:41;4.70;;;2.67;;
17852;SDS011;9052;53.494;14.376;2023-05-28T10:32:08;3.87;;;2.43;;
17852;SDS011;9052;53.494;14.376;2023-05-28T10:34:35;5.80;;;2.93;;
17852;SDS011;9052;53.494;14.376;2023-05-28T10:37:03;3.17;;;2.70;;
17852;SDS011;9052;53.494;14.376;2023-05-28T10:39:38;6.73;;;2.30;;
17852;SDS011;9052;53.494;14.376;2023-05-28T10:42:06;5.30;;;2.90;;
17852;SDS011;9052;53.494;14.376;2023-05-28T10:44:51;5.17;;;2.50;;
17852;SDS011;9052;53.494;14.376;2023-05-28T10:47:31;3.90;;;2.23;;
17852;SDS011;9052;53.494;14.376;2023-05-28T10:49:59;17.10;;;2.70;;
17852;SDS011;9052;53.494;14.376;2023-05-28T10:52:26;3.70;;;2.03;;
17852;SDS011;9052;53.494;14.376;2023-05-28T10:54:53;3.10;;;2.43;;
17852;SDS011;9052;53.494;14.376;2023-05-28T10:57:20;14.03;;;2.07;;
17852;SDS011;9052;53.494;14.376;2023-05-28T10:59:48;6.40;;;2.40;;
17852;SDS011;9052;53.494;14.376;2023-05-28T11:02:18;4.80;;;3.03;;
17852;SDS011;9052;53.494;14.376;2023-05-28T11:04:49;3.30;;;2.10;;
17852;SDS011;9052;53.494;14.376;2023-05-28T11:07:17;5.47;;;3.07;;
17852;SDS011;9052;53.494;14.376;2023-05-28T11:09:46;3.40;;;2.37;;
17852;SDS011;9052;53.494;14.376;2023-05-28T11:12:14;5.20;;;2.97;;
17852;SDS011;9052;53.494;14.376;2023-05-28T11:14:42;6.53;;;2.83;;
17852;SDS011;9052;53.494;14.376;2023-05-28T11:17:11;4.50;;;2.80;;
17852;SDS011;9052;53.494;14.376;2023-05-28T11:19:39;18.60;;;3.20;;
17852;SDS011;9052;53.494;14.376;2023-05-28T11:22:07;7.27;;;2.50;;
17852;SDS011;9052;53.494;14.376;2023-05-28T11:24:49;5.27;;;2.20;;
17852;SDS011;9052;53.494;14.376;2023-05-28T11:27:17;11.63;;;3.00;;
17852;SDS011;9052;53.494;14.376;2023-05-28T11:29:44;4.17;;;2.37;;
17852;SDS011;9052;53.494;14.376;2023-05-28T11:32:12;12.33;;;2.90;;
17852;SDS011;9052;53.494;14.376;2023-05-28T11:34:39;2.77;;;2.10;;
17852;SDS011;9052;53.494;14.376;2023-05-28T11:37:06;4.57;;;2.40;;
17852;SDS011;9052;53.494;14.376;2023-05-28T11:39:34;3.87;;;2.60;;
17852;SDS011;9052;53.494;14.376;2023-05-28T11:42:01;3.93;;;3.00;;
17852;SDS011;9052;53.494;14.376;2023-05-28T11:44:28;3.57;;;2.50;;
17852;SDS011;9052;53.494;14.376;2023-05-28T11:46:55;7.53;;;2.80;;
17852;SDS011;9052;53.494;14.376;2023-05-28T11:49:24;7.67;;;2.50;;
17852;SDS011;9052;53.494;14.376;2023-05-28T11:51:51;4.57;;;2.57;;
17852;SDS011;9052;53.494;14.376;2023-05-28T11:54:18;5.67;;;3.07;;
17852;SDS011;9052;53.494;14.376;2023-05-28T11:56:47;21.30;;;3.13;;
17852;SDS011;9052;53.494;14.376;2023-05-28T11:59:15;3.60;;;2.70;;
17852;SDS011;9052;53.494;14.376;2023-05-28T12:01:44;7.93;;;2.43;;
17852;SDS011;9052;53.494;14.376;2023-05-28T12:04:11;5.13;;;2.73;;
17852;SDS011;9052;53.494;14.376;2023-05-28T12:06:51;6.50;;;2.10;;
17852;SDS011;9052;53.494;14.376;2023-05-28T12:09:19;3.37;;;2.17;;
17852;SDS011;9052;53.494;14.376;2023-05-28T12:14:28;3.17;;;2.60;;
17852;SDS011;9052;53.494;14.376;2023-05-28T12:17:00;6.40;;;2.50;;
17852;SDS011;9052;53.494;14.376;2023-05-28T12:19:31;5.40;;;3.10;;
17852;SDS011;9052;53.494;14.376;2023-05-28T12:22:00;44.63;;;3.30;;
17852;SDS011;9052;53.494;14.376;2023-05-28T12:24:27;6.30;;;3.13;;
17852;SDS011;9052;53.494;14.376;2023-05-28T12:26:55;4.00;;;2.30;;
17852;SDS011;9052;53.494;14.376;2023-05-28T12:29:22;4.47;;;2.83;;
17852;SDS011;9052;53.494;14.376;2023-05-28T12:31:57;5.67;;;3.03;;
17852;SDS011;9052;53.494;14.376;2023-05-28T12:34:24;4.93;;;2.77;;
17852;SDS011;9052;53.494;14.376;2023-05-28T12:36:51;3.93;;;2.60;;
17852;SDS011;9052;53.494;14.376;2023-05-28T12:39:20;5.27;;;3.00;;
17852;SDS011;9052;53.494;14.376;2023-05-28T12:41:47;4.40;;;2.30;;
17852;SDS011;9052;53.494;14.376;2023-05-28T12:44:15;6.50;;;2.43;;
17852;SDS011;9052;53.494;14.376;2023-05-28T12:46:42;9.97;;;2.47;;
17852;SDS011;9052;53.494;14.376;2023-05-28T12:49:09;3.83;;;2.03;;
17852;SDS011;9052;53.494;14.376;2023-05-28T12:51:36;5.87;;;2.70;;
17852;SDS011;9052;53.494;14.376;2023-05-28T12:54:04;4.27;;;2.50;;
17852;SDS011;9052;53.494;14.376;2023-05-28T12:56:33;5.20;;;2.93;;
17852;SDS011;9052;53.494;14.376;2023-05-28T12:59:00;6.17;;;3.20;;
17852;SDS011;9052;53.494;14.376;2023-05-28T13:01:27;3.33;;;2.50;;
17852;SDS011;9052;53.494;14.376;2023-05-28T13:03:54;8.70;;;2.83;;
17852;SDS011;9052;53.494;14.376;2023-05-28T13:06:21;9.03;;;2.50;;
17852;SDS011;9052;53.494;14.376;2023-05-28T13:08:48;3.53;;;2.80;;
17852;SDS011;9052;53.494;14.376;2023-05-28T13:11:15;2.90;;;2.63;;
17852;SDS011;9052;53.494;14.376;2023-05-28T13:13:44;5.60;;;2.63;;
17852;SDS011;9052;53.494;14.376;2023-05-28T13:16:10;3.90;;;2.67;;
17852;SDS011;9052;53.494;14.376;2023-05-28T13:18:37;5.60;;;2.70;;
17852;SDS011;9052;53.494;14.376;2023-05-28T13:21:04;8.90;;;2.40;;
17852;SDS011;9052;53.494;14.376;2023-05-28T13:23:31;5.73;;;2.73;;
17852;SDS011;9052;53.494;14.376;2023-05-28T13:25:58;2.20;;;2.00;;
17852;SDS011;9052;53.494;14.376;2023-05-28T13:28:25;4.50;;;2.20;;
17852;SDS011;9052;53.494;14.376;2023-05-28T13:30:53;5.20;;;2.50;;
17852;SDS011;9052;53.494;14.376;2023-05-28T13:33:20;5.80;;;3.17;;
17852;SDS011;9052;53.494;14.376;2023-05-28T13:35:47;4.77;;;2.50;;
17852;SDS011;9052;53.494;14.376;2023-05-28T13:38:14;4.40;;;2.33;;
17852;SDS011;9052;53.494;14.376;2023-05-28T13:40:42;3.50;;;2.20;;
17852;SDS011;9052;53.494;14.376;2023-05-28T13:43:09;7.23;;;3.13;;
17852;SDS011;9052;53.494;14.376;2023-05-28T13:45:38;4.87;;;2.60;;
17852;SDS011;9052;53.494;14.376;2023-05-28T13:48:07;10.57;;;4.00;;
17852;SDS011;9052;53.494;14.376;2023-05-28T13:50:34;5.97;;;3.03;;
17852;SDS011;9052;53.494;14.376;2023-05-28T13:53:01;7.90;;;3.27;;
17852;SDS011;9052;53.494;14.376;2023-05-28T13:55:28;7.20;;;3.70;;
17852;SDS011;9052;53.494;14.376;2023-05-28T13:57:55;9.63;;;3.07;;
17852;SDS011;9052;53.494;14.376;2023-05-28T14:00:22;7.43;;;3.07;;
17852;SDS011;9052;53.494;14.376;2023-05-28T14:02:49;6.97;;;4.37;;
17852;SDS011;9052;53.494;14.376;2023-05-28T14:05:17;9.63;;;3.80;;
17852;SDS011;9052;53.494;14.376;2023-05-28T14:07:44;3.97;;;3.20;;
17852;SDS011;9052;53.494;14.376;2023-05-28T14:10:11;8.43;;;3.80;;
17852;SDS011;9052;53.494;14.376;2023-05-28T14:12:38;4.83;;;3.43;;
17852;SDS011;9052;53.494;14.376;2023-05-28T14:15:05;9.30;;;3.40;;
17852;SDS011;9052;53.494;14.376;2023-05-28T14:17:33;9.80;;;3.23;;
17852;SDS011;9052;53.494;14.376;2023-05-28T14:20:00;10.50;;;2.93;;
17852;SDS011;9052;53.494;14.376;2023-05-28T14:22:30;6.80;;;3.27;;
17852;SDS011;9052;53.494;14.376;2023-05-28T14:24:57;5.80;;;2.90;;
17852;SDS011;9052;53.494;14.376;2023-05-28T14:27:24;5.77;;;2.73;;
17852;SDS011;9052;53.494;14.376;2023-05-28T14:29:51;3.00;;;2.70;;
17852;SDS011;9052;53.494;14.376;2023-05-28T14:32:18;7.33;;;4.33;;
17852;SDS011;9052;53.494;14.376;2023-05-28T14:34:44;13.20;;;3.33;;
17852;SDS011;9052;53.494;14.376;2023-05-28T14:37:11;9.03;;;3.13;;
17852;SDS011;9052;53.494;14.376;2023-05-28T14:39:40;6.87;;;3.40;;
17852;SDS011;9052;53.494;14.376;2023-05-28T14:42:06;4.30;;;2.90;;
17852;SDS011;9052;53.494;14.376;2023-05-28T14:44:33;12.30;;;3.00;;
17852;SDS011;9052;53.494;14.376;2023-05-28T14:47:00;15.10;;;3.73;;
17852;SDS011;9052;53.494;14.376;2023-05-28T14:49:27;3.37;;;2.30;;
17852;SDS011;9052;53.494;14.376;2023-05-28T14:51:54;5.27;;;2.60;;